Time;durP1;ratioP1;P1;durP2;ratioP2;P2;SDS_P1;SDS_P2;PMS_P1;PMS_P2;Temp;Humidity;BMP_temperature;BMP_pressure;BME280_temperature;BME280_humidity;BME280_pressure;Samples;Min_cycle;Max_cycle;Signal;HPM_P1;HPM_P2
2021/06/21 00:00:10;;;;;;;4.13;1.80;;;19.70;76.30;;;;;;4707913;30;20499;-71
2021/06/21 00:02:39;;;;;;;3.75;2.00;;;19.60;76.40;;;;;;4681428;30;20050;-71
2021/06/21 00:05:08;;;;;;;4.25;2.10;;;19.60;76.80;;;;;;4703968;30;20045;-71
2021/06/21 00:07:35;;;;;;;3.83;2.05;;;19.50;76.90;;;;;;4699854;30;20057;-71
2021/06/21 00:10:04;;;;;;;4.03;1.38;;;19.40;77.10;;;;;;4679789;30;20065;-71
2021/06/21 00:12:32;;;;;;;3.75;2.45;;;19.40;77.10;;;;;;4705737;30;20789;-71
2021/06/21 00:14:59;;;;;;;3.35;2.10;;;19.30;77.30;;;;;;4667961;30;20141;-72
2021/06/21 00:17:26;;;;;;;3.60;2.63;;;19.30;77.40;;;;;;4679520;30;20091;-71
2021/06/21 00:19:53;;;;;;;5.93;3.08;;;19.20;77.50;;;;;;4686737;30;20057;-71
2021/06/21 00:22:20;;;;;;;3.22;2.20;;;19.20;77.50;;;;;;4685939;30;20053;-71
2021/06/21 00:24:47;;;;;;;4.03;2.22;;;19.10;77.60;;;;;;4668379;30;20061;-71
2021/06/21 00:27:14;;;;;;;2.90;1.88;;;19.10;77.70;;;;;;4680984;30;20049;-71
2021/06/21 00:29:41;;;;;;;5.45;2.30;;;19.10;77.70;;;;;;4684046;30;20404;-71
2021/06/21 00:32:09;;;;;;;3.58;2.22;;;19.10;77.80;;;;;;4683841;30;20119;-71
2021/06/21 00:34:37;;;;;;;4.05;2.28;;;19.10;77.70;;;;;;4684257;30;20045;-72
2021/06/21 00:37:04;;;;;;;3.88;2.75;;;19.10;77.70;;;;;;4687354;30;20050;-71
2021/06/21 00:39:31;;;;;;;5.68;2.90;;;19.00;77.70;;;;;;4681748;30;20048;-71
2021/06/21 00:41:58;;;;;;;5.15;2.85;;;19.00;77.70;;;;;;4700539;30;20050;-71
2021/06/21 00:44:25;;;;;;;5.82;2.90;;;18.90;77.70;;;;;;4695867;30;20055;-71
2021/06/21 00:46:52;;;;;;;4.82;2.95;;;18.90;77.90;;;;;;4681688;30;20101;-71
2021/06/21 00:49:19;;;;;;;4.65;2.78;;;18.80;77.90;;;;;;4703715;30;20053;-71
2021/06/21 00:51:47;;;;;;;5.60;3.30;;;18.80;77.90;;;;;;4658003;30;20053;-71
2021/06/21 00:54:14;;;;;;;5.93;3.65;;;18.70;78.00;;;;;;4681519;30;20525;-71
2021/06/21 00:56:41;;;;;;;5.38;2.97;;;18.70;78.10;;;;;;4670281;30;20092;-71
2021/06/21 00:59:08;;;;;;;4.68;3.00;;;18.60;78.20;;;;;;4694741;30;20042;-72
2021/06/21 01:01:35;;;;;;;5.07;2.92;;;18.60;78.40;;;;;;4703641;30;20042;-71
2021/06/21 01:04:02;;;;;;;4.20;2.88;;;18.50;78.50;;;;;;4699465;30;20477;-71
2021/06/21 01:06:30;;;;;;;5.30;2.72;;;18.40;78.70;;;;;;4707081;30;20045;-71
2021/06/21 01:08:57;;;;;;;7.57;3.95;;;18.40;78.80;;;;;;4693357;30;20049;-71
2021/06/21 01:12:16;;;;;;;5.63;3.47;;;18.30;79.00;;;;;;4686657;30;20060;-72
2021/06/21 01:14:48;;;;;;;5.40;3.60;;;18.10;79.20;;;;;;4649502;30;20055;-71
2021/06/21 01:17:25;;;;;;;5.90;3.63;;;18.00;79.60;;;;;;4663588;30;20097;-72
2021/06/21 01:20:11;;;;;;;6.63;4.15;;;17.90;79.70;;;;;;4688615;30;20058;-72
2021/06/21 01:23:00;;;;;;;5.55;3.78;;;17.90;80.00;;;;;;4682182;30;20068;-72
2021/06/21 01:25:48;;;;;;;5.75;3.90;;;17.80;80.20;;;;;;4682815;30;20056;-71
2021/06/21 01:28:47;;;;;;;6.03;3.67;;;17.70;80.20;;;;;;4693898;30;20128;-71
2021/06/21 01:31:20;;;;;;;5.13;3.70;;;17.70;80.50;;;;;;4676597;30;20064;-71
2021/06/21 01:33:48;;;;;;;4.40;3.13;;;17.60;80.50;;;;;;4681040;30;20068;-71
2021/06/21 01:36:17;;;;;;;4.88;2.97;;;17.60;80.50;;;;;;4703621;30;20107;-71
2021/06/21 01:38:55;;;;;;;5.32;3.28;;;17.60;80.40;;;;;;4697982;30;20100;-71
2021/06/21 01:41:28;;;;;;;5.70;3.35;;;17.60;80.50;;;;;;4690244;30;20096;-72
2021/06/21 01:43:58;;;;;;;5.28;3.38;;;17.60;80.50;;;;;;4682787;30;20076;-71
2021/06/21 01:46:30;;;;;;;5.10;3.22;;;17.60;80.50;;;;;;4684153;30;20916;-71
2021/06/21 01:49:20;;;;;;;5.22;3.78;;;17.60;80.60;;;;;;4679331;30;20064;-71
2021/06/21 01:51:49;;;;;;;5.47;3.53;;;17.50;80.60;;;;;;4702709;30;20648;-71
2021/06/21 01:54:17;;;;;;;4.63;3.10;;;17.50;80.80;;;;;;4675223;30;20042;-72
2021/06/21 01:56:47;;;;;;;3.92;2.65;;;17.50;80.90;;;;;;4707647;30;20049;-72
2021/06/21 01:59:16;;;;;;;5.55;3.08;;;17.40;80.90;;;;;;4705406;30;20052;-71
2021/06/21 02:01:44;;;;;;;5.05;2.97;;;17.40;81.10;;;;;;4682376;30;20131;-71
2021/06/21 02:04:14;;;;;;;3.85;2.45;;;17.30;81.30;;;;;;4692548;30;20498;-71
2021/06/21 02:06:42;;;;;;;5.15;2.83;;;17.30;81.40;;;;;;4696933;30;20049;-71
2021/06/21 02:09:10;;;;;;;3.72;2.05;;;17.20;81.40;;;;;;4704180;30;20049;-71
2021/06/21 02:11:37;;;;;;;3.78;2.17;;;17.20;81.50;;;;;;4686060;30;20111;-71
2021/06/21 02:14:06;;;;;;;3.13;2.00;;;17.20;81.50;;;;;;4692191;30;20041;-71
2021/06/21 02:16:34;;;;;;;4.10;2.42;;;17.20;81.50;;;;;;4692470;30;20053;-71
2021/06/21 02:19:02;;;;;;;3.80;2.00;;;17.20;81.50;;;;;;4696843;30;20057;-71
2021/06/21 02:21:30;;;;;;;3.53;1.85;;;17.20;81.70;;;;;;4667331;30;20373;-71
2021/06/21 02:23:57;;;;;;;3.65;2.45;;;17.10;81.70;;;;;;4682447;30;20128;-71
2021/06/21 02:26:26;;;;;;;3.00;2.00;;;17.10;81.90;;;;;;4686684;30;20107;-72
2021/06/21 02:28:57;;;;;;;3.47;2.00;;;17.00;82.00;;;;;;4698622;30;20050;-71
2021/06/21 02:31:24;;;;;;;4.40;2.28;;;16.90;82.10;;;;;;4683316;30;20132;-72
2021/06/21 02:33:51;;;;;;;3.17;1.55;;;16.90;82.30;;;;;;4681943;30;20112;-72
2021/06/21 02:36:18;;;;;;;4.28;1.55;;;16.70;82.30;;;;;;4681447;30;20045;-72
2021/06/21 02:38:45;;;;;;;4.47;1.58;;;16.70;82.60;;;;;;4693382;30;20049;-72
2021/06/21 02:41:12;;;;;;;3.60;1.70;;;16.70;83.20;;;;;;4685136;30;20054;-72
2021/06/21 02:43:39;;;;;;;2.70;1.70;;;16.70;83.60;;;;;;4702532;30;20100;-72
2021/06/21 02:46:06;;;;;;;3.35;1.75;;;16.60;83.90;;;;;;4682661;30;20061;-72
2021/06/21 02:48:34;;;;;;;6.93;1.70;;;16.60;84.70;;;;;;4683501;30;20487;-71
2021/06/21 02:51:04;;;;;;;4.10;2.08;;;16.50;85.40;;;;;;4687986;30;20422;-71
2021/06/21 02:53:41;;;;;;;3.05;1.75;;;16.50;85.20;;;;;;4701582;30;20054;-72
2021/06/21 02:56:23;;;;;;;3.08;1.88;;;16.40;85.50;;;;;;4683250;30;20065;-72
2021/06/21 02:58:57;;;;;;;2.90;1.67;;;16.40;85.80;;;;;;4683304;30;20132;-72
2021/06/21 03:01:25;;;;;;;4.13;1.60;;;16.30;85.90;;;;;;4703858;30;20053;-71
2021/06/21 03:03:55;;;;;;;2.78;1.25;;;16.20;86.10;;;;;;4695676;30;20206;-72
2021/06/21 03:06:24;;;;;;;2.53;1.25;;;16.20;86.30;;;;;;4689302;30;20495;-71
2021/06/21 03:08:53;;;;;;;2.20;1.42;;;16.10;86.50;;;;;;4693082;30;20495;-72
2021/06/21 03:11:21;;;;;;;1.90;0.95;;;16.10;86.60;;;;;;4686202;30;20499;-72
2021/06/21 03:13:52;;;;;;;2.65;1.02;;;16.10;86.70;;;;;;4690156;30;20045;-72
2021/06/21 03:16:19;;;;;;;3.88;1.00;;;16.00;86.70;;;;;;4687245;30;20064;-71
2021/06/21 03:18:47;;;;;;;2.38;1.25;;;15.90;87.00;;;;;;4703204;30;20100;-72
2021/06/21 03:21:17;;;;;;;1.58;0.82;;;15.90;87.20;;;;;;4685370;30;20553;-72
2021/06/21 03:23:49;;;;;;;2.35;1.00;;;15.90;87.30;;;;;;4680222;30;20069;-72
2021/06/21 03:26:16;;;;;;;3.17;1.42;;;15.90;87.40;;;;;;4687881;30;20056;-72
2021/06/21 03:28:43;;;;;;;2.72;1.33;;;15.90;87.40;;;;;;4692273;30;20577;-72
2021/06/21 03:31:10;;;;;;;4.07;1.17;;;15.90;87.50;;;;;;4672902;30;20100;-72
2021/06/21 03:33:37;;;;;;;1.83;0.82;;;15.80;87.60;;;;;;4687819;30;20131;-71
2021/06/21 03:36:05;;;;;;;2.85;1.00;;;15.70;87.70;;;;;;4671114;30;20064;-71
2021/06/21 03:38:32;;;;;;;2.90;1.00;;;15.70;87.80;;;;;;4698230;30;20059;-71
2021/06/21 03:41:01;;;;;;;2.10;1.00;;;15.70;88.10;;;;;;4676149;30;20050;-72
2021/06/21 03:43:30;;;;;;;4.38;1.13;;;15.60;88.50;;;;;;4695898;30;20465;-71
2021/06/21 03:45:59;;;;;;;2.90;0.95;;;15.60;88.50;;;;;;4663016;30;20054;-71
2021/06/21 03:48:27;;;;;;;2.72;1.10;;;15.60;88.60;;;;;;4699406;30;20045;-71
2021/06/21 03:50:55;;;;;;;1.90;0.80;;;15.60;88.60;;;;;;4684714;30;20115;-71
2021/06/21 03:53:25;;;;;;;1.67;0.65;;;15.60;88.80;;;;;;4687877;30;20049;-71
2021/06/21 03:55:53;;;;;;;1.48;0.80;;;15.50;88.80;;;;;;4697099;30;20045;-71
2021/06/21 03:58:20;;;;;;;1.65;0.70;;;15.50;88.80;;;;;;4673791;30;20057;-72
2021/06/21 04:00:48;;;;;;;2.67;1.23;;;15.50;88.90;;;;;;4668129;30;20133;-71
2021/06/21 04:03:15;;;;;;;2.70;1.17;;;15.50;89.10;;;;;;4701066;30;20054;-71
2021/06/21 04:05:42;;;;;;;2.50;0.82;;;15.40;89.10;;;;;;4675380;30;20108;-71
2021/06/21 04:08:12;;;;;;;1.35;0.65;;;15.50;89.20;;;;;;4700468;30;20057;-71
2021/06/21 04:10:39;;;;;;;1.13;0.52;;;15.40;89.20;;;;;;4683545;30;20051;-71
2021/06/21 04:13:07;;;;;;;1.25;0.50;;;15.40;89.40;;;;;;4685122;30;20069;-71
2021/06/21 04:15:37;;;;;;;1.70;0.50;;;15.40;89.40;;;;;;4698265;30;20427;-71
2021/06/21 04:18:07;;;;;;;2.08;0.75;;;15.40;89.50;;;;;;4700364;30;20133;-71
2021/06/21 04:20:34;;;;;;;1.00;0.30;;;15.40;89.60;;;;;;4687981;30;20458;-71
2021/06/21 04:23:03;;;;;;;1.38;0.60;;;15.30;89.60;;;;;;4680887;30;20455;-71
2021/06/21 04:25:30;;;;;;;1.45;0.60;;;15.30;89.80;;;;;;4669534;30;20046;-71
2021/06/21 04:28:01;;;;;;;1.27;0.60;;;15.30;89.90;;;;;;4699609;30;20083;-71
2021/06/21 04:30:29;;;;;;;1.17;0.50;;;15.30;90.00;;;;;;4701530;30;20124;-71
2021/06/21 04:32:56;;;;;;;2.33;0.40;;;15.30;90.00;;;;;;4684559;30;20052;-71
2021/06/21 04:35:25;;;;;;;1.30;0.43;;;15.20;90.00;;;;;;4668062;30;20050;-70
2021/06/21 04:37:54;;;;;;;1.10;0.40;;;15.20;90.00;;;;;;4707666;30;20049;-71
2021/06/21 04:40:24;;;;;;;0.73;0.35;;;15.20;90.10;;;;;;4704359;30;20104;-70
2021/06/21 04:42:52;;;;;;;0.82;0.40;;;15.10;90.10;;;;;;4686502;30;20131;-70
2021/06/21 04:45:19;;;;;;;1.50;0.70;;;15.10;90.20;;;;;;4678487;30;20499;-71
2021/06/21 04:47:47;;;;;;;2.60;0.57;;;15.10;90.20;;;;;;4670020;30;20598;-70
2021/06/21 04:50:17;;;;;;;1.45;0.70;;;15.10;90.20;;;;;;4700991;30;20072;-71
2021/06/21 04:52:46;;;;;;;1.10;0.52;;;15.10;90.20;;;;;;4695587;30;20045;-71
2021/06/21 04:55:15;;;;;;;0.95;0.50;;;15.10;90.20;;;;;;4699323;30;20045;-70
2021/06/21 04:57:43;;;;;;;0.93;0.40;;;15.10;90.20;;;;;;4704477;30;20054;-71
2021/06/21 05:00:15;;;;;;;1.00;0.50;;;15.20;90.20;;;;;;4703697;30;20045;-71
2021/06/21 05:02:42;;;;;;;1.00;0.43;;;15.20;90.20;;;;;;4682908;30;20458;-71
2021/06/21 05:05:10;;;;;;;1.58;0.70;;;15.10;90.20;;;;;;4670492;30;20054;-71
2021/06/21 05:07:39;;;;;;;0.80;0.40;;;15.10;90.30;;;;;;4686563;30;20475;-71
2021/06/21 05:10:08;;;;;;;1.55;0.50;;;15.10;90.30;;;;;;4684002;30;20462;-71
2021/06/21 05:12:35;;;;;;;1.33;0.60;;;15.00;90.30;;;;;;4695787;30;20061;-70
2021/06/21 05:15:03;;;;;;;1.27;0.40;;;15.00;90.30;;;;;;4674024;30;20416;-71
2021/06/21 05:17:30;;;;;;;1.77;0.60;;;15.00;90.40;;;;;;4695349;30;20069;-71
2021/06/21 05:19:57;;;;;;;1.00;0.40;;;15.00;90.40;;;;;;4671829;30;20056;-71
2021/06/21 05:22:24;;;;;;;0.95;0.40;;;15.00;90.70;;;;;;4662329;30;20064;-71
2021/06/21 05:24:52;;;;;;;0.52;0.30;;;15.00;90.40;;;;;;4671899;30;20053;-71
2021/06/21 05:27:19;;;;;;;1.27;0.35;;;15.10;90.40;;;;;;4685194;30;20111;-70
2021/06/21 05:29:46;;;;;;;1.38;0.35;;;15.10;90.40;;;;;;4686228;30;20061;-70
2021/06/21 05:32:13;;;;;;;0.85;0.40;;;15.10;90.40;;;;;;4699860;30;20057;-71
2021/06/21 05:34:40;;;;;;;1.10;0.50;;;15.10;90.50;;;;;;4669954;30;20117;-71
2021/06/21 05:37:07;;;;;;;0.88;0.43;;;15.00;90.40;;;;;;4682703;30;20049;-71
2021/06/21 05:39:34;;;;;;;1.13;0.45;;;15.00;90.50;;;;;;4682579;30;20090;-71
2021/06/21 05:42:01;;;;;;;1.38;0.40;;;15.00;90.50;;;;;;4687228;30;20120;-74
2021/06/21 05:44:28;;;;;;;1.17;0.50;;;15.00;90.50;;;;;;4689311;30;20470;-70
2021/06/21 05:46:55;;;;;;;1.15;0.55;;;15.00;90.50;;;;;;4682243;30;20487;-70
2021/06/21 05:49:22;;;;;;;0.98;0.35;;;15.00;90.60;;;;;;4697042;30;20055;-68
2021/06/21 05:51:49;;;;;;;0.57;0.30;;;15.00;90.60;;;;;;4668675;30;20120;-67
2021/06/21 05:54:16;;;;;;;0.80;0.32;;;15.00;90.60;;;;;;4708999;30;20395;-68
2021/06/21 05:56:43;;;;;;;0.88;0.30;;;15.10;90.60;;;;;;4683277;30;20060;-68
2021/06/21 05:59:10;;;;;;;0.95;0.30;;;15.00;90.50;;;;;;4682007;30;20046;-68
2021/06/21 06:01:38;;;;;;;0.77;0.35;;;15.10;90.90;;;;;;4708372;30;20107;-68
2021/06/21 06:04:05;;;;;;;0.85;0.30;;;15.10;90.60;;;;;;4679955;30;20482;-68
2021/06/21 06:06:32;;;;;;;0.80;0.30;;;15.10;90.50;;;;;;4687481;30;20500;-68
2021/06/21 06:08:59;;;;;;;0.82;0.30;;;15.10;90.50;;;;;;4691889;30;20077;-68
2021/06/21 06:11:26;;;;;;;1.83;0.30;;;15.10;90.50;;;;;;4705720;30;20052;-68
2021/06/21 06:13:53;;;;;;;1.52;0.32;;;15.10;90.50;;;;;;4689690;30;20076;-68
2021/06/21 06:16:20;;;;;;;0.55;0.30;;;15.20;90.60;;;;;;4699486;30;20061;-68
2021/06/21 06:18:47;;;;;;;1.70;0.38;;;15.10;90.50;;;;;;4667479;30;20045;-68
2021/06/21 06:21:17;;;;;;;0.70;0.30;;;15.10;90.50;;;;;;4668646;30;20050;-68
2021/06/21 06:23:44;;;;;;;0.77;0.30;;;15.10;90.60;;;;;;4696010;30;20045;-68
2021/06/21 06:26:11;;;;;;;1.50;0.55;;;15.10;90.60;;;;;;4697686;30;20053;-68
2021/06/21 06:28:39;;;;;;;0.30;0.20;;;15.00;90.60;;;;;;4691782;30;20133;-68
2021/06/21 06:31:06;;;;;;;0.70;0.40;;;15.00;90.60;;;;;;4682629;30;20058;-68
2021/06/21 06:33:34;;;;;;;0.95;0.30;;;15.00;90.70;;;;;;4698080;30;20057;-68
2021/06/21 06:36:01;;;;;;;0.70;0.30;;;15.00;90.70;;;;;;4706264;30;20511;-68
2021/06/21 06:38:28;;;;;;;0.52;0.30;;;15.00;90.70;;;;;;4700848;30;20097;-68
2021/06/21 06:40:55;;;;;;;0.50;0.20;;;15.00;90.70;;;;;;4680172;30;20492;-68
2021/06/21 06:43:22;;;;;;;1.10;0.40;;;15.00;90.70;;;;;;4699663;30;20073;-68
2021/06/21 06:45:49;;;;;;;0.60;0.30;;;15.00;90.70;;;;;;4686039;30;20666;-68
2021/06/21 06:48:16;;;;;;;0.60;0.30;;;15.10;90.80;;;;;;4682053;30;20057;-68
2021/06/21 06:50:43;;;;;;;0.95;0.20;;;15.10;90.80;;;;;;4701262;30;20049;-69
2021/06/21 06:53:10;;;;;;;0.60;0.20;;;15.10;90.70;;;;;;4684295;30;20482;-69
2021/06/21 06:58:22;;;;;;;0.43;0.20;;;15.20;90.70;;;;;;4707306;30;20048;-68
2021/06/21 07:00:49;;;;;;;0.75;0.25;;;15.20;90.70;;;;;;4689754;30;20049;-69
2021/06/21 07:03:16;;;;;;;0.45;0.20;;;15.20;90.70;;;;;;4688360;30;20480;-69
2021/06/21 07:05:43;;;;;;;0.70;0.30;;;15.20;90.70;;;;;;4692979;30;20123;-69
2021/06/21 07:08:10;;;;;;;0.45;0.20;;;15.20;90.70;;;;;;4693907;30;20053;-68
2021/06/21 07:10:37;;;;;;;0.75;0.20;;;15.20;90.70;;;;;;4686596;30;20065;-68
2021/06/21 07:13:04;;;;;;;0.60;0.20;;;15.20;90.70;;;;;;4705577;30;20053;-68
2021/06/21 07:15:32;;;;;;;1.38;0.28;;;15.20;90.70;;;;;;4690412;30;20111;-68
2021/06/21 07:17:59;;;;;;;0.75;0.40;;;15.20;91.00;;;;;;4680848;30;20446;-69
2021/06/21 07:20:26;;;;;;;0.60;0.30;;;15.20;90.70;;;;;;4686429;30;20303;-68
2021/06/21 07:22:52;;;;;;;0.63;0.30;;;15.20;90.80;;;;;;4682093;30;20073;-69
2021/06/21 07:25:19;;;;;;;0.52;0.30;;;15.20;90.80;;;;;;4646669;30;20058;-69
2021/06/21 07:27:47;;;;;;;0.50;0.30;;;15.20;90.80;;;;;;4680842;30;20147;-68
2021/06/21 07:30:15;;;;;;;0.50;0.30;;;15.20;90.80;;;;;;4688375;30;20072;-69
2021/06/21 07:32:42;;;;;;;0.85;0.38;;;15.20;90.80;;;;;;4670863;30;20470;-69
2021/06/21 07:35:10;;;;;;;0.45;0.20;;;15.30;90.80;;;;;;4705010;30;20050;-70
2021/06/21 07:37:37;;;;;;;0.55;0.20;;;15.30;90.80;;;;;;4709263;30;20045;-68
2021/06/21 07:40:05;;;;;;;0.85;0.30;;;15.30;90.80;;;;;;4699974;30;20052;-69
2021/06/21 07:42:32;;;;;;;0.35;0.20;;;15.40;90.80;;;;;;4699677;30;20073;-68
2021/06/21 07:45:00;;;;;;;0.70;0.30;;;15.40;90.80;;;;;;4706060;30;20064;-69
2021/06/21 07:47:27;;;;;;;0.40;0.25;;;15.40;90.80;;;;;;4666806;30;20539;-68
2021/06/21 07:49:54;;;;;;;0.57;0.38;;;15.40;90.80;;;;;;4697910;30;20570;-68
2021/06/21 07:52:21;;;;;;;1.08;0.40;;;15.40;90.80;;;;;;4699638;30;20145;-69
2021/06/21 07:54:49;;;;;;;0.57;0.30;;;15.40;90.80;;;;;;4694409;30;20060;-68
2021/06/21 07:57:16;;;;;;;0.60;0.30;;;15.50;90.80;;;;;;4691759;30;20139;-67
2021/06/21 07:59:43;;;;;;;1.10;0.40;;;15.50;90.80;;;;;;4675814;30;20496;-68
2021/06/21 08:02:10;;;;;;;0.98;0.40;;;15.50;90.80;;;;;;4677538;30;20050;-68
2021/06/21 08:04:37;;;;;;;0.45;0.30;;;15.50;90.80;;;;;;4691470;30;20156;-75
2021/06/21 08:07:05;;;;;;;0.60;0.30;;;15.50;90.80;;;;;;4695544;30;20053;-75
2021/06/21 08:09:32;;;;;;;0.73;0.30;;;15.50;90.80;;;;;;4680297;30;20141;-76
2021/06/21 08:11:59;;;;;;;0.40;0.20;;;15.50;90.80;;;;;;4664909;30;20558;-76
2021/06/21 08:14:26;;;;;;;0.40;0.22;;;15.50;90.80;;;;;;4704161;30;20462;-77
2021/06/21 08:16:53;;;;;;;0.85;0.38;;;15.50;90.90;;;;;;4703884;30;20053;-77
2021/06/21 08:19:20;;;;;;;0.93;0.30;;;15.50;90.80;;;;;;4684395;30;20521;-76
2021/06/21 08:21:47;;;;;;;0.82;0.35;;;15.60;90.80;;;;;;4693359;30;20129;-77
2021/06/21 08:24:14;;;;;;;1.30;0.45;;;15.60;90.70;;;;;;4693534;30;20119;-77
2021/06/21 08:26:41;;;;;;;0.80;0.32;;;15.50;90.80;;;;;;4679921;30;20088;-77
2021/06/21 08:29:08;;;;;;;1.73;0.45;;;15.60;90.80;;;;;;4691732;30;20573;-77
2021/06/21 08:31:35;;;;;;;0.80;0.40;;;15.60;91.00;;;;;;4677254;30;20069;-77
2021/06/21 08:34:02;;;;;;;1.00;0.40;;;15.60;90.80;;;;;;4693503;30;20041;-77
2021/06/21 08:36:29;;;;;;;0.77;0.50;;;15.60;90.80;;;;;;4666351;30;20058;-78
2021/06/21 08:38:56;;;;;;;1.25;0.50;;;15.50;90.80;;;;;;4664581;30;20052;-77
2021/06/21 08:41:23;;;;;;;1.40;0.50;;;15.50;90.80;;;;;;4684364;30;20088;-77
2021/06/21 08:43:50;;;;;;;2.33;0.50;;;15.50;90.90;;;;;;4697004;30;20085;-78
2021/06/21 08:46:18;;;;;;;0.60;0.32;;;15.50;90.90;;;;;;4679095;30;20053;-77
2021/06/21 08:48:47;;;;;;;1.98;0.55;;;15.50;90.90;;;;;;4677129;30;20066;-77
2021/06/21 08:51:15;;;;;;;1.27;0.50;;;15.50;91.00;;;;;;4696167;30;20075;-78
2021/06/21 08:53:43;;;;;;;1.00;0.50;;;15.50;91.00;;;;;;4679338;30;20060;-78
2021/06/21 08:56:10;;;;;;;1.25;0.50;;;15.50;91.00;;;;;;4670747;30;20077;-78
2021/06/21 08:58:39;;;;;;;0.80;0.40;;;15.50;91.10;;;;;;4690726;30;20049;-77
2021/06/21 09:01:07;;;;;;;2.42;0.77;;;15.50;91.10;;;;;;4681484;30;20053;-78
2021/06/21 09:03:35;;;;;;;1.67;0.55;;;15.50;91.10;;;;;;4680521;30;20120;-78
2021/06/21 09:06:03;;;;;;;0.95;0.60;;;15.50;91.20;;;;;;4701114;30;20404;-78
2021/06/21 09:08:57;;;;;;;0.70;0.40;;;15.50;91.20;;;;;;4674414;30;20115;-77
2021/06/21 09:11:49;;;;;;;1.50;0.60;;;15.50;91.20;;;;;;4657429;30;20149;-77
2021/06/21 09:14:25;;;;;;;0.80;0.47;;;15.50;91.30;;;;;;4670122;30;20054;-77
2021/06/21 09:16:54;;;;;;;1.48;0.52;;;15.40;91.30;;;;;;4677056;30;20062;-77
2021/06/21 09:19:21;;;;;;;1.10;0.52;;;15.40;91.30;;;;;;4671863;30;20069;-78
2021/06/21 09:21:49;;;;;;;1.92;0.60;;;15.30;91.30;;;;;;4687190;30;20076;-77
2021/06/21 09:24:29;;;;;;;1.10;0.60;;;15.30;91.50;;;;;;4674434;30;20490;-78
2021/06/21 09:27:01;;;;;;;1.23;0.60;;;15.30;91.50;;;;;;4687594;30;20467;-77
2021/06/21 09:29:36;;;;;;;0.90;0.38;;;15.30;91.50;;;;;;4690299;30;20041;-76
2021/06/21 09:32:41;;;;;;;0.93;0.45;;;15.30;91.50;;;;;;4688278;30;20045;-76
2021/06/21 09:35:11;;;;;;;1.38;0.40;;;15.20;91.60;;;;;;4682236;30;20050;-77
2021/06/21 09:37:44;;;;;;;0.70;0.38;;;15.30;91.60;;;;;;4691920;30;20046;-77
2021/06/21 09:40:27;;;;;;;1.05;0.50;;;15.30;91.60;;;;;;4676979;30;20496;-77
2021/06/21 09:42:55;;;;;;;0.77;0.38;;;15.40;91.50;;;;;;4673942;30;20120;-75
2021/06/21 09:45:23;;;;;;;0.70;0.40;;;15.40;91.50;;;;;;4672379;30;20046;-75
2021/06/21 09:47:50;;;;;;;1.73;0.60;;;15.30;91.50;;;;;;4674703;30;20052;-76
2021/06/21 09:50:23;;;;;;;0.80;0.50;;;15.40;91.60;;;;;;4677335;30;20054;-76
2021/06/21 09:52:57;;;;;;;1.55;0.60;;;15.40;91.80;;;;;;4685316;30;20053;-76
2021/06/21 09:55:24;;;;;;;1.10;0.68;;;15.40;91.60;;;;;;4684763;30;20050;-78
2021/06/21 09:58:00;;;;;;;0.88;0.43;;;15.50;91.60;;;;;;4686683;30;20136;-77
2021/06/21 10:00:28;;;;;;;0.80;0.30;;;15.60;91.50;;;;;;4687857;30;20037;-71
2021/06/21 10:03:17;;;;;;;1.17;0.45;;;15.60;91.40;;;;;;4671008;30;20077;-70
2021/06/21 10:06:10;;;;;;;1.05;0.47;;;15.70;91.40;;;;;;4687190;30;20049;-70
2021/06/21 10:08:47;;;;;;;1.23;0.40;;;15.70;91.30;;;;;;4685651;30;20478;-71
2021/06/21 10:11:34;;;;;;;1.88;0.50;;;15.80;91.40;;;;;;4688428;30;20511;-71
2021/06/21 10:14:09;;;;;;;0.85;0.45;;;15.80;91.30;;;;;;4687080;30;20057;-70
2021/06/21 10:16:37;;;;;;;1.20;0.57;;;15.90;91.20;;;;;;4688780;30;20054;-70
2021/06/21 10:19:06;;;;;;;0.80;0.52;;;15.90;91.20;;;;;;4673674;30;20160;-74
2021/06/21 10:21:35;;;;;;;0.80;0.40;;;16.00;91.20;;;;;;4675288;30;20137;-71
2021/06/21 10:24:02;;;;;;;0.90;0.50;;;16.10;91.20;;;;;;4676562;30;20037;-71
2021/06/21 10:26:29;;;;;;;1.02;0.50;;;16.20;91.20;;;;;;4691680;30;20050;-72
2021/06/21 10:28:58;;;;;;;0.88;0.50;;;16.20;91.10;;;;;;4689451;30;20050;-72
2021/06/21 10:31:29;;;;;;;0.77;0.40;;;16.20;91.10;;;;;;4692108;30;20522;-71
2021/06/21 10:33:58;;;;;;;0.90;0.30;;;16.20;91.20;;;;;;4706848;30;20140;-72
2021/06/21 10:36:46;;;;;;;1.13;0.40;;;16.30;91.10;;;;;;4684656;30;20046;-71
2021/06/21 10:39:19;;;;;;;0.35;0.25;;;16.40;91.00;;;;;;4673731;30;20050;-72
2021/06/21 10:42:25;;;;;;;0.80;0.30;;;16.40;91.00;;;;;;4691545;30;20050;-71
2021/06/21 10:44:56;;;;;;;0.47;0.30;;;16.40;91.00;;;;;;4654061;30;20570;-71
2021/06/21 10:47:43;;;;;;;0.50;0.30;;;16.40;91.00;;;;;;4682381;30;20056;-71
2021/06/21 10:50:16;;;;;;;0.60;0.20;;;16.40;90.90;;;;;;4681658;30;20050;-71
2021/06/21 10:52:52;;;;;;;0.80;0.30;;;16.30;91.00;;;;;;4698335;30;20148;-72
2021/06/21 10:55:29;;;;;;;1.00;0.30;;;16.40;90.90;;;;;;4696221;30;20042;-71
2021/06/21 10:57:59;;;;;;;0.68;0.30;;;16.50;90.80;;;;;;4699439;30;20049;-70
2021/06/21 11:00:33;;;;;;;0.75;0.30;;;16.50;90.80;;;;;;4696980;30;20541;-70
2021/06/21 11:03:02;;;;;;;0.70;0.40;;;16.50;90.70;;;;;;4686305;30;20057;-70
2021/06/21 11:05:42;;;;;;;0.60;0.30;;;16.60;90.60;;;;;;4693361;30;20183;-71
2021/06/21 11:08:17;;;;;;;0.60;0.40;;;16.60;90.80;;;;;;4684634;30;20053;-72
2021/06/21 11:10:46;;;;;;;0.40;0.25;;;16.60;90.50;;;;;;4704418;30;20138;-74
2021/06/21 11:13:34;;;;;;;2.03;0.32;;;16.60;90.50;;;;;;4696440;30;20049;-70
2021/06/21 11:16:24;;;;;;;1.17;0.40;;;16.70;90.50;;;;;;4671754;30;20121;-70
2021/06/21 11:19:22;;;;;;;0.52;0.30;;;16.90;90.30;;;;;;4664654;30;20059;-70
2021/06/21 11:21:53;;;;;;;0.68;0.40;;;16.90;90.20;;;;;;4689161;30;20113;-71
2021/06/21 11:24:36;;;;;;;1.35;0.40;;;17.00;90.10;;;;;;4665900;30;20500;-70
2021/06/21 11:27:07;;;;;;;1.00;0.43;;;17.00;89.70;;;;;;4685016;30;20061;-70
2021/06/21 11:29:43;;;;;;;0.80;0.38;;;17.10;89.70;;;;;;4704826;30;20503;-70
2021/06/21 11:32:12;;;;;;;1.65;0.30;;;17.20;89.40;;;;;;4700259;30;20049;-71
2021/06/21 11:34:54;;;;;;;0.77;0.57;;;17.10;89.10;;;;;;4691653;30;20053;-71
2021/06/21 11:37:39;;;;;;;0.60;0.30;;;17.10;89.20;;;;;;4699528;30;20048;-71
2021/06/21 11:40:12;;;;;;;0.88;0.30;;;17.10;89.70;;;;;;4677291;30;20049;-70
2021/06/21 11:42:39;;;;;;;0.90;0.40;;;17.10;89.60;;;;;;4702894;30;20046;-70
2021/06/21 11:45:08;;;;;;;1.27;0.40;;;17.10;89.60;;;;;;4710510;30;20152;-71
2021/06/21 11:47:36;;;;;;;0.50;0.30;;;17.10;89.70;;;;;;4701046;30;20467;-70
2021/06/21 11:50:15;;;;;;;1.08;0.35;;;17.20;89.70;;;;;;4710607;30;20049;-70
2021/06/21 11:52:46;;;;;;;0.68;0.35;;;17.30;88.90;;;;;;4685965;30;20054;-70
2021/06/21 11:55:15;;;;;;;1.25;0.40;;;17.10;88.90;;;;;;4700904;30;20057;-70
2021/06/21 11:57:44;;;;;;;1.02;0.40;;;17.10;89.40;;;;;;4687350;30;20041;-72
2021/06/21 12:00:13;;;;;;;1.95;0.40;;;17.10;89.50;;;;;;4686380;30;20402;-70
2021/06/21 12:02:41;;;;;;;0.45;0.30;;;17.20;89.50;;;;;;4681824;30;20049;-70
2021/06/21 12:05:10;;;;;;;2.33;0.70;;;17.20;89.20;;;;;;4698753;30;20499;-71
2021/06/21 12:07:42;;;;;;;0.70;0.32;;;17.20;89.30;;;;;;4706235;30;20054;-70
2021/06/21 12:10:13;;;;;;;;;;;17.30;89.40;;;;;;4680537;30;20053;-70
2021/06/21 12:12:44;;;;;;;0.88;0.30;;;17.30;89.40;;;;;;4681214;30;19934;-70
2021/06/21 12:15:25;;;;;;;0.60;0.30;;;17.30;89.10;;;;;;4690715;30;20151;-70
2021/06/21 12:17:54;;;;;;;0.70;0.32;;;17.40;89.10;;;;;;4700665;30;20056;-69
2021/06/21 12:20:22;;;;;;;1.50;0.40;;;17.50;89.00;;;;;;4686908;30;20077;-71
2021/06/21 12:22:54;;;;;;;1.33;0.50;;;17.60;88.50;;;;;;4688507;30;20530;-71
2021/06/21 12:25:55;;;;;;;0.68;0.40;;;17.60;88.30;;;;;;4701020;30;20080;-70
2021/06/21 12:28:23;;;;;;;0.88;0.40;;;17.70;88.30;;;;;;4695668;30;20416;-75
2021/06/21 12:30:56;;;;;;;1.35;0.50;;;17.80;88.40;;;;;;4702677;30;20072;-71
2021/06/21 12:33:24;;;;;;;;;;;17.90;88.30;;;;;;4701342;30;20394;-72
2021/06/21 12:36:08;;;;;;;0.88;0.40;;;18.00;88.50;;;;;;4691949;30;20388;-71
2021/06/21 12:38:54;;;;;;;0.40;0.40;;;18.00;87.90;;;;;;4683534;30;20096;-70
2021/06/21 12:41:24;;;;;;;0.80;0.40;;;18.20;87.80;;;;;;4692916;30;20050;-70
2021/06/21 12:44:02;;;;;;;1.55;0.60;;;18.30;87.50;;;;;;4698397;30;20054;-69
2021/06/21 12:46:32;;;;;;;1.65;0.50;;;18.20;86.80;;;;;;4709063;30;20056;-71
2021/06/21 12:49:02;;;;;;;1.70;0.50;;;18.10;87.00;;;;;;4695124;30;20037;-70
2021/06/21 12:51:31;;;;;;;1.27;0.50;;;18.00;87.10;;;;;;4692608;30;20511;-69
2021/06/21 12:53:59;;;;;;;2.03;0.50;;;17.80;87.30;;;;;;4680136;30;20157;-71
2021/06/21 12:56:34;;;;;;;1.50;0.73;;;17.60;87.60;;;;;;4686352;30;20046;-71
2021/06/21 12:59:02;;;;;;;1.17;0.60;;;17.50;87.60;;;;;;4685461;30;20045;-71
2021/06/21 13:01:32;;;;;;;0.88;0.60;;;17.40;88.00;;;;;;4694291;30;20063;-71
2021/06/21 13:04:21;;;;;;;0.77;0.50;;;17.40;87.90;;;;;;4682444;30;21268;-70
2021/06/21 13:07:05;;;;;;;1.10;0.60;;;17.20;87.70;;;;;;4691861;30;20057;-70